sensor_id;sensor_type;location;lat;lon;timestamp;P1;durP1;ratioP1;P2;durP2;ratioP2
60239;SDS011;46102;39.012;-7.064;2024-02-15T12:16:18;27.05;;;5.55;;
60239;SDS011;46102;39.012;-7.064;2024-02-15T12:18:37;21.88;;;5.50;;
60239;SDS011;46102;39.012;-7.064;2024-02-15T12:20:44;31.73;;;6.38;;
60239;SDS011;46102;39.012;-7.064;2024-02-15T12:22:47;25.55;;;5.93;;
60239;SDS011;46102;39.012;-7.064;2024-02-15T12:27:01;25.63;;;4.35;;
60239;SDS011;46102;39.012;-7.064;2024-02-15T12:29:05;26.77;;;5.05;;
60239;SDS011;46102;39.012;-7.064;2024-02-15T12:31:08;17.85;;;4.80;;
60239;SDS011;46102;39.012;-7.064;2024-02-15T12:33:10;30.23;;;5.30;;
60239;SDS011;46102;39.012;-7.064;2024-02-15T12:35:13;17.90;;;4.55;;
60239;SDS011;46102;39.012;-7.064;2024-02-15T12:37:20;25.02;;;5.05;;
60239;SDS011;46102;39.012;-7.064;2024-02-15T12:39:24;24.40;;;5.57;;
60239;SDS011;46102;39.012;-7.064;2024-02-15T12:43:26;15.25;;;4.90;;
60239;SDS011;46102;39.012;-7.064;2024-02-15T12:45:27;24.38;;;4.90;;
60239;SDS011;46102;39.012;-7.064;2024-02-15T12:47:29;20.50;;;4.35;;
60239;SDS011;46102;39.012;-7.064;2024-02-15T12:49:31;31.85;;;5.20;;
60239;SDS011;46102;39.012;-7.064;2024-02-15T12:51:32;30.42;;;6.28;;
60239;SDS011;46102;39.012;-7.064;2024-02-15T12:53:33;28.77;;;5.43;;
60239;SDS011;46102;39.012;-7.064;2024-02-15T12:55:35;18.95;;;4.53;;
60239;SDS011;46102;39.012;-7.064;2024-02-15T12:57:37;32.22;;;6.38;;
60239;SDS011;46102;39.012;-7.064;2024-02-15T12:59:41;19.15;;;4.85;;
60239;SDS011;46102;39.012;-7.064;2024-02-15T13:01:42;26.50;;;5.75;;
60239;SDS011;46102;39.012;-7.064;2024-02-15T13:03:43;28.55;;;4.80;;
60239;SDS011;46102;39.012;-7.064;2024-02-15T13:05:45;23.60;;;5.07;;
60239;SDS011;46102;39.012;-7.064;2024-02-15T13:07:47;20.20;;;4.43;;
60239;SDS011;46102;39.012;-7.064;2024-02-15T13:09:49;23.25;;;5.10;;
60239;SDS011;46102;39.012;-7.064;2024-02-15T13:11:49;32.05;;;6.38;;
60239;SDS011;46102;39.012;-7.064;2024-02-15T13:13:50;36.92;;;7.45;;
60239;SDS011;46102;39.012;-7.064;2024-02-15T13:15:51;20.92;;;4.03;;
60239;SDS011;46102;39.012;-7.064;2024-02-15T13:17:56;18.10;;;6.00;;
60239;SDS011;46102;39.012;-7.064;2024-02-15T13:22:04;26.70;;;5.43;;
60239;SDS011;46102;39.012;-7.064;2024-02-15T13:24:08;22.63;;;4.47;;
60239;SDS011;46102;39.012;-7.064;2024-02-15T13:26:11;20.15;;;4.93;;
60239;SDS011;46102;39.012;-7.064;2024-02-15T13:28:15;22.00;;;4.85;;
60239;SDS011;46102;39.012;-7.064;2024-02-15T13:30:15;19.33;;;5.28;;
60239;SDS011;46102;39.012;-7.064;2024-02-15T13:32:21;13.10;;;3.72;;
60239;SDS011;46102;39.012;-7.064;2024-02-15T13:34:22;24.35;;;4.18;;
60239;SDS011;46102;39.012;-7.064;2024-02-15T13:36:22;19.88;;;5.53;;
60239;SDS011;46102;39.012;-7.064;2024-02-15T13:38:24;23.92;;;5.18;;
60239;SDS011;46102;39.012;-7.064;2024-02-15T13:40:26;17.70;;;5.20;;
60239;SDS011;46102;39.012;-7.064;2024-02-15T13:42:28;20.35;;;4.68;;
60239;SDS011;46102;39.012;-7.064;2024-02-15T13:44:30;23.80;;;6.30;;
60239;SDS011;46102;39.012;-7.064;2024-02-15T13:46:31;16.33;;;5.07;;
60239;SDS011;46102;39.012;-7.064;2024-02-15T13:48:32;21.48;;;4.43;;
60239;SDS011;46102;39.012;-7.064;2024-02-15T13:50:32;24.65;;;4.95;;
60239;SDS011;46102;39.012;-7.064;2024-02-15T13:52:34;22.70;;;4.68;;
60239;SDS011;46102;39.012;-7.064;2024-02-15T13:54:34;19.92;;;5.18;;
60239;SDS011;46102;39.012;-7.064;2024-02-15T13:56:35;19.23;;;4.70;;
60239;SDS011;46102;39.012;-7.064;2024-02-15T13:58:36;22.65;;;4.25;;
60239;SDS011;46102;39.012;-7.064;2024-02-15T14:00:36;16.20;;;4.35;;
60239;SDS011;46102;39.012;-7.064;2024-02-15T14:02:37;15.55;;;3.35;;
60239;SDS011;46102;39.012;-7.064;2024-02-15T14:04:38;3.35;;;1.60;;
60239;SDS011;46102;39.012;-7.064;2024-02-15T14:06:39;13.50;;;1.60;;
60239;SDS011;46102;39.012;-7.064;2024-02-15T14:08:44;5.18;;;1.33;;
60239;SDS011;46102;39.012;-7.064;2024-02-15T14:10:45;6.88;;;1.80;;
60239;SDS011;46102;39.012;-7.064;2024-02-15T14:12:45;5.68;;;2.67;;
60239;SDS011;46102;39.012;-7.064;2024-02-15T14:14:47;4.68;;;1.95;;
60239;SDS011;46102;39.012;-7.064;2024-02-15T14:16:49;5.53;;;2.85;;
60239;SDS011;46102;39.012;-7.064;2024-02-15T14:18:50;4.55;;;2.40;;
60239;SDS011;46102;39.012;-7.064;2024-02-15T14:20:51;7.20;;;2.25;;
60239;SDS011;46102;39.012;-7.064;2024-02-15T14:22:52;6.53;;;1.35;;
60239;SDS011;46102;39.012;-7.064;2024-02-15T14:24:56;3.47;;;0.93;;
60239;SDS011;46102;39.012;-7.064;2024-02-15T14:26:56;3.28;;;0.90;;
60239;SDS011;46102;39.012;-7.064;2024-02-15T14:28:57;2.13;;;0.80;;
60239;SDS011;46102;39.012;-7.064;2024-02-15T14:30:58;1.38;;;1.00;;
60239;SDS011;46102;39.012;-7.064;2024-02-15T14:33:17;4.57;;;1.02;;
60239;SDS011;46102;39.012;-7.064;2024-02-15T14:35:19;1.60;;;0.80;;
60239;SDS011;46102;39.012;-7.064;2024-02-15T14:37:20;1.20;;;0.80;;
60239;SDS011;46102;39.012;-7.064;2024-02-15T14:39:22;2.83;;;1.08;;
60239;SDS011;46102;39.012;-7.064;2024-02-15T14:41:23;1.42;;;0.85;;
60239;SDS011;46102;39.012;-7.064;2024-02-15T14:43:24;3.25;;;1.13;;
60239;SDS011;46102;39.012;-7.064;2024-02-15T14:45:26;3.83;;;0.95;;
60239;SDS011;46102;39.012;-7.064;2024-02-15T14:47:27;2.42;;;0.80;;
60239;SDS011;46102;39.012;-7.064;2024-02-15T14:49:28;2.25;;;1.02;;
60239;SDS011;46102;39.012;-7.064;2024-02-15T14:51:29;6.25;;;1.27;;
60239;SDS011;46102;39.012;-7.064;2024-02-15T14:53:31;4.75;;;0.98;;
60239;SDS011;46102;39.012;-7.064;2024-02-15T14:55:32;5.20;;;1.30;;
60239;SDS011;46102;39.012;-7.064;2024-02-15T14:57:35;2.33;;;1.20;;
60239;SDS011;46102;39.012;-7.064;2024-02-15T15:01:39;1.55;;;0.82;;
60239;SDS011;46102;39.012;-7.064;2024-02-15T15:03:41;1.48;;;0.70;;
60239;SDS011;46102;39.012;-7.064;2024-02-15T15:05:43;1.25;;;0.90;;
60239;SDS011;46102;39.012;-7.064;2024-02-15T15:08:03;3.53;;;1.45;;
60239;SDS011;46102;39.012;-7.064;2024-02-15T15:10:23;2.13;;;0.88;;
60239;SDS011;46102;39.012;-7.064;2024-02-15T15:12:42;3.58;;;1.05;;
60239;SDS011;46102;39.012;-7.064;2024-02-15T15:14:45;2.60;;;1.23;;
60239;SDS011;46102;39.012;-7.064;2024-02-15T15:16:46;2.97;;;1.23;;
60239;SDS011;46102;39.012;-7.064;2024-02-15T15:18:51;3.33;;;1.27;;
60239;SDS011;46102;39.012;-7.064;2024-02-15T15:22:53;2.03;;;1.08;;
60239;SDS011;46102;39.012;-7.064;2024-02-15T15:24:56;5.90;;;1.30;;
60239;SDS011;46102;39.012;-7.064;2024-02-15T15:26:57;5.05;;;1.38;;
60239;SDS011;46102;39.012;-7.064;2024-02-15T15:28:58;1.85;;;0.60;;
60239;SDS011;46102;39.012;-7.064;2024-02-15T15:30:59;1.17;;;0.40;;
60239;SDS011;46102;39.012;-7.064;2024-02-15T15:33:00;0.80;;;0.50;;
60239;SDS011;46102;39.012;-7.064;2024-02-15T15:35:01;6.13;;;0.55;;
60239;SDS011;46102;39.012;-7.064;2024-02-15T15:37:03;2.78;;;0.63;;
60239;SDS011;46102;39.012;-7.064;2024-02-15T15:39:06;5.47;;;0.70;;
60239;SDS011;46102;39.012;-7.064;2024-02-15T15:41:10;1.83;;;0.50;;
60239;SDS011;46102;39.012;-7.064;2024-02-15T15:43:12;1.48;;;0.45;;
60239;SDS011;46102;39.012;-7.064;2024-02-15T15:45:14;1.25;;;0.70;;
60239;SDS011;46102;39.012;-7.064;2024-02-15T15:47:15;0.98;;;0.50;;
60239;SDS011;46102;39.012;-7.064;2024-02-15T15:49:21;4.05;;;0.98;;
60239;SDS011;46102;39.012;-7.064;2024-02-15T15:51:26;1.23;;;0.60;;
60239;SDS011;46102;39.012;-7.064;2024-02-15T15:53:27;1.90;;;0.52;;
60239;SDS011;46102;39.012;-7.064;2024-02-15T15:55:28;2.03;;;0.90;;
60239;SDS011;46102;39.012;-7.064;2024-02-15T15:57:33;1.95;;;0.85;;
60239;SDS011;46102;39.012;-7.064;2024-02-15T16:01:39;1.97;;;1.40;;
60239;SDS011;46102;39.012;-7.064;2024-02-15T16:03:51;2.10;;;1.35;;
60239;SDS011;46102;39.012;-7.064;2024-02-15T16:07:53;2.42;;;1.73;;
60239;SDS011;46102;39.012;-7.064;2024-02-15T16:09:54;3.13;;;1.50;;
60239;SDS011;46102;39.012;-7.064;2024-02-15T16:11:56;2.05;;;1.35;;
60239;SDS011;46102;39.012;-7.064;2024-02-15T16:13:59;1.05;;;0.95;;
60239;SDS011;46102;39.012;-7.064;2024-02-15T16:16:00;1.63;;;1.27;;
60239;SDS011;46102;39.012;-7.064;2024-02-15T16:18:04;1.45;;;0.98;;
60239;SDS011;46102;39.012;-7.064;2024-02-15T16:22:09;3.70;;;0.75;;
60239;SDS011;46102;39.012;-7.064;2024-02-15T16:24:10;2.63;;;0.98;;
60239;SDS011;46102;39.012;-7.064;2024-02-15T16:26:11;2.25;;;0.90;;
60239;SDS011;46102;39.012;-7.064;2024-02-15T16:28:12;1.13;;;0.73;;
60239;SDS011;46102;39.012;-7.064;2024-02-15T16:30:14;1.05;;;0.85;;
60239;SDS011;46102;39.012;-7.064;2024-02-15T16:32:14;2.95;;;1.10;;
60239;SDS011;46102;39.012;-7.064;2024-02-15T16:34:15;1.83;;;1.08;;
60239;SDS011;46102;39.012;-7.064;2024-02-15T16:36:17;2.70;;;1.33;;
60239;SDS011;46102;39.012;-7.064;2024-02-15T16:38:17;5.57;;;2.00;;
60239;SDS011;46102;39.012;-7.064;2024-02-15T16:40:18;2.38;;;2.20;;
60239;SDS011;46102;39.012;-7.064;2024-02-15T16:44:23;10.57;;;4.40;;
60239;SDS011;46102;39.012;-7.064;2024-02-15T16:46:25;4.53;;;3.50;;
60239;SDS011;46102;39.012;-7.064;2024-02-15T16:48:26;4.43;;;3.20;;
60239;SDS011;46102;39.012;-7.064;2024-02-15T16:50:29;3.53;;;2.75;;
60239;SDS011;46102;39.012;-7.064;2024-02-15T16:52:30;3.15;;;2.03;;
60239;SDS011;46102;39.012;-7.064;2024-02-15T16:54:31;4.35;;;2.05;;
60239;SDS011;46102;39.012;-7.064;2024-02-15T16:56:32;4.72;;;2.05;;
60239;SDS011;46102;39.012;-7.064;2024-02-15T16:58:33;1.55;;;1.20;;
60239;SDS011;46102;39.012;-7.064;2024-02-15T17:00:34;3.28;;;1.35;;
60239;SDS011;46102;39.012;-7.064;2024-02-15T17:02:34;1.73;;;1.00;;
60239;SDS011;46102;39.012;-7.064;2024-02-15T17:04:38;1.70;;;0.70;;
60239;SDS011;46102;39.012;-7.064;2024-02-15T17:06:39;1.33;;;0.40;;
60239;SDS011;46102;39.012;-7.064;2024-02-15T17:08:40;2.85;;;0.70;;
60239;SDS011;46102;39.012;-7.064;2024-02-15T17:10:41;0.60;;;0.60;;
60239;SDS011;46102;39.012;-7.064;2024-02-15T17:12:42;1.40;;;0.77;;
60239;SDS011;46102;39.012;-7.064;2024-02-15T17:14:43;0.95;;;0.57;;
60239;SDS011;46102;39.012;-7.064;2024-02-15T17:16:44;2.75;;;0.75;;
60239;SDS011;46102;39.012;-7.064;2024-02-15T17:18:44;0.45;;;0.45;;
60239;SDS011;46102;39.012;-7.064;2024-02-15T17:20:45;3.60;;;1.15;;
60239;SDS011;46102;39.012;-7.064;2024-02-15T17:22:46;2.65;;;0.70;;
60239;SDS011;46102;39.012;-7.064;2024-02-15T17:24:47;5.43;;;0.50;;
60239;SDS011;46102;39.012;-7.064;2024-02-15T17:26:48;0.88;;;0.40;;
60239;SDS011;46102;39.012;-7.064;2024-02-15T17:28:49;1.00;;;0.40;;
60239;SDS011;46102;39.012;-7.064;2024-02-15T17:30:50;4.70;;;0.82;;
60239;SDS011;46102;39.012;-7.064;2024-02-15T17:32:51;1.13;;;0.75;;
60239;SDS011;46102;39.012;-7.064;2024-02-15T17:34:52;4.75;;;0.50;;
60239;SDS011;46102;39.012;-7.064;2024-02-15T17:36:53;2.22;;;0.60;;
60239;SDS011;46102;39.012;-7.064;2024-02-15T17:38:54;2.80;;;0.50;;
60239;SDS011;46102;39.012;-7.064;2024-02-15T17:40:54;3.90;;;0.98;;
60239;SDS011;46102;39.012;-7.064;2024-02-15T17:42:55;2.72;;;0.93;;
60239;SDS011;46102;39.012;-7.064;2024-02-15T17:44:56;1.38;;;0.80;;
60239;SDS011;46102;39.012;-7.064;2024-02-15T17:46:57;3.92;;;0.77;;
60239;SDS011;46102;39.012;-7.064;2024-02-15T17:49:00;3.33;;;0.70;;
60239;SDS011;46102;39.012;-7.064;2024-02-15T17:51:01;3.38;;;0.90;;
60239;SDS011;46102;39.012;-7.064;2024-02-15T17:53:04;1.67;;;0.90;;
60239;SDS011;46102;39.012;-7.064;2024-02-15T17:55:05;1.05;;;0.60;;
60239;SDS011;46102;39.012;-7.064;2024-02-15T17:57:08;1.50;;;0.65;;
60239;SDS011;46102;39.012;-7.064;2024-02-15T17:59:15;3.10;;;0.55;;
60239;SDS011;46102;39.012;-7.064;2024-02-15T18:01:16;5.68;;;0.93;;
60239;SDS011;46102;39.012;-7.064;2024-02-15T18:03:17;2.50;;;1.02;;
60239;SDS011;46102;39.012;-7.064;2024-02-15T18:05:18;2.88;;;1.10;;
60239;SDS011;46102;39.012;-7.064;2024-02-15T18:07:19;7.10;;;1.33;;
60239;SDS011;46102;39.012;-7.064;2024-02-15T18:09:19;2.00;;;1.70;;
60239;SDS011;46102;39.012;-7.064;2024-02-15T18:11:20;3.95;;;1.13;;
60239;SDS011;46102;39.012;-7.064;2024-02-15T18:13:21;3.42;;;0.90;;
60239;SDS011;46102;39.012;-7.064;2024-02-15T18:15:23;3.10;;;1.17;;
60239;SDS011;46102;39.012;-7.064;2024-02-15T18:17:24;1.95;;;0.82;;
60239;SDS011;46102;39.012;-7.064;2024-02-15T18:19:26;1.52;;;0.70;;
60239;SDS011;46102;39.012;-7.064;2024-02-15T18:21:27;1.45;;;0.95;;
60239;SDS011;46102;39.012;-7.064;2024-02-15T18:23:32;5.47;;;1.00;;
60239;SDS011;46102;39.012;-7.064;2024-02-15T18:25:33;2.85;;;1.10;;
60239;SDS011;46102;39.012;-7.064;2024-02-15T18:27:35;5.75;;;1.38;;
60239;SDS011;46102;39.012;-7.064;2024-02-15T18:29:36;5.47;;;0.93;;
60239;SDS011;46102;39.012;-7.064;2024-02-15T18:31:37;5.38;;;1.33;;
60239;SDS011;46102;39.012;-7.064;2024-02-15T18:33:38;5.65;;;2.17;;
60239;SDS011;46102;39.012;-7.064;2024-02-15T18:35:44;3.60;;;0.82;;
60239;SDS011;46102;39.012;-7.064;2024-02-15T18:37:45;1.38;;;0.98;;
60239;SDS011;46102;39.012;-7.064;2024-02-15T18:39:46;4.13;;;1.30;;
60239;SDS011;46102;39.012;-7.064;2024-02-15T18:41:47;4.15;;;1.42;;
60239;SDS011;46102;39.012;-7.064;2024-02-15T18:43:50;1.80;;;1.27;;
60239;SDS011;46102;39.012;-7.064;2024-02-15T18:45:52;3.00;;;1.27;;
60239;SDS011;46102;39.012;-7.064;2024-02-15T18:47:53;3.63;;;1.70;;
60239;SDS011;46102;39.012;-7.064;2024-02-15T18:49:54;2.30;;;1.20;;
60239;SDS011;46102;39.012;-7.064;2024-02-15T18:51:56;6.15;;;1.90;;
60239;SDS011;46102;39.012;-7.064;2024-02-15T18:53:56;5.35;;;2.30;;
60239;SDS011;46102;39.012;-7.064;2024-02-15T18:55:58;4.95;;;2.78;;
60239;SDS011;46102;39.012;-7.064;2024-02-15T18:57:59;8.25;;;3.47;;
60239;SDS011;46102;39.012;-7.064;2024-02-15T19:00:00;9.25;;;2.72;;
60239;SDS011;46102;39.012;-7.064;2024-02-15T19:02:04;3.92;;;2.90;;
60239;SDS011;46102;39.012;-7.064;2024-02-15T19:04:07;5.05;;;1.75;;
60239;SDS011;46102;39.012;-7.064;2024-02-15T19:06:08;3.63;;;1.80;;
60239;SDS011;46102;39.012;-7.064;2024-02-15T19:08:13;2.58;;;1.30;;
60239;SDS011;46102;39.012;-7.064;2024-02-15T19:10:14;3.88;;;2.53;;
60239;SDS011;46102;39.012;-7.064;2024-02-15T19:12:15;7.75;;;1.40;;
60239;SDS011;46102;39.012;-7.064;2024-02-15T19:14:16;4.97;;;1.50;;
60239;SDS011;46102;39.012;-7.064;2024-02-15T19:16:18;5.95;;;1.35;;
60239;SDS011;46102;39.012;-7.064;2024-02-15T19:18:20;6.18;;;2.30;;
60239;SDS011;46102;39.012;-7.064;2024-02-15T19:20:21;4.25;;;1.77;;
60239;SDS011;46102;39.012;-7.064;2024-02-15T19:22:22;6.97;;;2.08;;
60239;SDS011;46102;39.012;-7.064;2024-02-15T19:24:23;4.13;;;1.30;;
60239;SDS011;46102;39.012;-7.064;2024-02-15T19:26:24;6.97;;;2.03;;
60239;SDS011;46102;39.012;-7.064;2024-02-15T19:28:25;4.97;;;1.60;;
60239;SDS011;46102;39.012;-7.064;2024-02-15T19:30:26;2.78;;;1.65;;
60239;SDS011;46102;39.012;-7.064;2024-02-15T19:32:27;11.07;;;1.80;;
60239;SDS011;46102;39.012;-7.064;2024-02-15T19:34:29;9.30;;;1.50;;
60239;SDS011;46102;39.012;-7.064;2024-02-15T19:36:30;2.83;;;1.60;;
60239;SDS011;46102;39.012;-7.064;2024-02-15T19:38:31;4.93;;;1.42;;
60239;SDS011;46102;39.012;-7.064;2024-02-15T19:40:32;6.15;;;1.50;;
60239;SDS011;46102;39.012;-7.064;2024-02-15T19:42:33;1.77;;;1.00;;
60239;SDS011;46102;39.012;-7.064;2024-02-15T19:44:35;6.22;;;1.25;;
60239;SDS011;46102;39.012;-7.064;2024-02-15T19:46:36;4.13;;;1.42;;
60239;SDS011;46102;39.012;-7.064;2024-02-15T19:48:41;2.72;;;1.25;;
60239;SDS011;46102;39.012;-7.064;2024-02-15T19:50:43;4.65;;;1.35;;
60239;SDS011;46102;39.012;-7.064;2024-02-15T19:52:44;5.10;;;1.80;;
60239;SDS011;46102;39.012;-7.064;2024-02-15T19:54:47;6.50;;;1.75;;
60239;SDS011;46102;39.012;-7.064;2024-02-15T19:56:48;2.78;;;1.00;;
60239;SDS011;46102;39.012;-7.064;2024-02-15T19:58:49;4.03;;;1.35;;
60239;SDS011;46102;39.012;-7.064;2024-02-15T20:00:50;9.40;;;2.55;;
60239;SDS011;46102;39.012;-7.064;2024-02-15T20:02:51;7.50;;;2.58;;
60239;SDS011;46102;39.012;-7.064;2024-02-15T20:04:53;9.00;;;3.30;;
60239;SDS011;46102;39.012;-7.064;2024-02-15T20:06:53;9.50;;;4.25;;
60239;SDS011;46102;39.012;-7.064;2024-02-15T20:08:54;14.98;;;7.28;;
60239;SDS011;46102;39.012;-7.064;2024-02-15T20:10:57;11.73;;;6.25;;
60239;SDS011;46102;39.012;-7.064;2024-02-15T20:12:59;8.48;;;3.72;;
60239;SDS011;46102;39.012;-7.064;2024-02-15T20:14:59;12.35;;;3.53;;
60239;SDS011;46102;39.012;-7.064;2024-02-15T20:17:00;3.72;;;2.78;;
60239;SDS011;46102;39.012;-7.064;2024-02-15T20:19:01;6.47;;;3.38;;
60239;SDS011;46102;39.012;-7.064;2024-02-15T20:21:05;6.53;;;3.13;;
60239;SDS011;46102;39.012;-7.064;2024-02-15T20:23:10;3.88;;;2.40;;
60239;SDS011;46102;39.012;-7.064;2024-02-15T20:25:11;5.95;;;2.15;;
60239;SDS011;46102;39.012;-7.064;2024-02-15T20:27:13;5.55;;;3.05;;
60239;SDS011;46102;39.012;-7.064;2024-02-15T20:29:56;4.40;;;2.10;;
60239;SDS011;46102;39.012;-7.064;2024-02-15T20:33:31;4.70;;;1.48;;
60239;SDS011;46102;39.012;-7.064;2024-02-15T20:55:31;9.10;;;5.18;;
60239;SDS011;46102;39.012;-7.064;2024-02-15T20:57:32;11.15;;;6.00;;
60239;SDS011;46102;39.012;-7.064;2024-02-15T20:59:33;12.18;;;6.07;;
60239;SDS011;46102;39.012;-7.064;2024-02-15T21:01:36;12.07;;;6.18;;
60239;SDS011;46102;39.012;-7.064;2024-02-15T21:03:37;15.30;;;6.95;;
60239;SDS011;46102;39.012;-7.064;2024-02-15T21:05:38;13.35;;;7.05;;
60239;SDS011;46102;39.012;-7.064;2024-02-15T21:07:39;12.77;;;6.07;;
60239;SDS011;46102;39.012;-7.064;2024-02-15T21:09:41;9.07;;;4.43;;
60239;SDS011;46102;39.012;-7.064;2024-02-15T21:11:42;10.30;;;4.80;;
60239;SDS011;46102;39.012;-7.064;2024-02-15T21:15:47;10.00;;;4.72;;
60239;SDS011;46102;39.012;-7.064;2024-02-15T21:17:47;12.30;;;4.95;;
60239;SDS011;46102;39.012;-7.064;2024-02-15T21:19:49;5.80;;;3.38;;
60239;SDS011;46102;39.012;-7.064;2024-02-15T21:21:50;11.00;;;4.10;;
60239;SDS011;46102;39.012;-7.064;2024-02-15T21:23:50;6.38;;;3.70;;
60239;SDS011;46102;39.012;-7.064;2024-02-15T21:25:53;12.05;;;3.90;;
60239;SDS011;46102;39.012;-7.064;2024-02-15T21:27:53;7.88;;;2.53;;
60239;SDS011;46102;39.012;-7.064;2024-02-15T21:29:54;5.68;;;2.20;;
60239;SDS011;46102;39.012;-7.064;2024-02-15T21:31:55;9.15;;;3.95;;
60239;SDS011;46102;39.012;-7.064;2024-02-15T21:33:56;7.70;;;2.90;;
60239;SDS011;46102;39.012;-7.064;2024-02-15T21:35:59;5.22;;;2.28;;
60239;SDS011;46102;39.012;-7.064;2024-02-15T21:38:00;9.05;;;2.20;;
60239;SDS011;46102;39.012;-7.064;2024-02-15T21:40:01;9.25;;;3.67;;
60239;SDS011;46102;39.012;-7.064;2024-02-15T21:42:06;10.07;;;2.85;;
60239;SDS011;46102;39.012;-7.064;2024-02-15T21:44:08;5.13;;;2.40;;
60239;SDS011;46102;39.012;-7.064;2024-02-15T21:46:09;4.88;;;1.88;;
60239;SDS011;46102;39.012;-7.064;2024-02-15T21:48:11;6.68;;;2.22;;
60239;SDS011;46102;39.012;-7.064;2024-02-15T21:50:12;8.05;;;2.72;;
60239;SDS011;46102;39.012;-7.064;2024-02-15T21:52:12;2.67;;;1.90;;
60239;SDS011;46102;39.012;-7.064;2024-02-15T21:54:14;5.43;;;2.50;;
60239;SDS011;46102;39.012;-7.064;2024-02-15T21:56:15;6.18;;;2.70;;
60239;SDS011;46102;39.012;-7.064;2024-02-15T21:58:15;4.97;;;1.98;;
60239;SDS011;46102;39.012;-7.064;2024-02-15T22:00:16;5.57;;;2.15;;
60239;SDS011;46102;39.012;-7.064;2024-02-15T22:02:17;3.42;;;1.73;;
60239;SDS011;46102;39.012;-7.064;2024-02-15T22:04:19;7.25;;;3.17;;
60239;SDS011;46102;39.012;-7.064;2024-02-15T22:06:20;6.72;;;1.83;;
60239;SDS011;46102;39.012;-7.064;2024-02-15T22:08:21;9.38;;;2.13;;
60239;SDS011;46102;39.012;-7.064;2024-02-15T22:10:22;4.93;;;1.90;;
60239;SDS011;46102;39.012;-7.064;2024-02-15T22:12:23;5.18;;;2.05;;
60239;SDS011;46102;39.012;-7.064;2024-02-15T22:14:23;8.57;;;2.55;;
60239;SDS011;46102;39.012;-7.064;2024-02-15T22:16:25;7.50;;;2.17;;
60239;SDS011;46102;39.012;-7.064;2024-02-15T22:18:26;4.78;;;1.98;;
60239;SDS011;46102;39.012;-7.064;2024-02-15T22:20:27;3.83;;;1.88;;
60239;SDS011;46102;39.012;-7.064;2024-02-15T22:22:28;6.18;;;1.60;;
60239;SDS011;46102;39.012;-7.064;2024-02-15T22:24:29;16.35;;;2.20;;
60239;SDS011;46102;39.012;-7.064;2024-02-15T22:26:29;4.13;;;2.03;;
60239;SDS011;46102;39.012;-7.064;2024-02-15T22:28:30;4.53;;;1.80;;
60239;SDS011;46102;39.012;-7.064;2024-02-15T22:30:31;7.32;;;1.70;;
60239;SDS011;46102;39.012;-7.064;2024-02-15T22:32:32;4.38;;;1.33;;
60239;SDS011;46102;39.012;-7.064;2024-02-15T22:34:33;5.55;;;1.92;;
60239;SDS011;46102;39.012;-7.064;2024-02-15T22:36:33;6.32;;;1.38;;
60239;SDS011;46102;39.012;-7.064;2024-02-15T22:38:34;4.93;;;1.10;;
60239;SDS011;46102;39.012;-7.064;2024-02-15T22:40:35;3.03;;;1.20;;
60239;SDS011;46102;39.012;-7.064;2024-02-15T22:42:36;3.38;;;1.40;;
60239;SDS011;46102;39.012;-7.064;2024-02-15T22:44:37;11.43;;;3.17;;
60239;SDS011;46102;39.012;-7.064;2024-02-15T22:46:44;3.92;;;1.50;;
60239;SDS011;46102;39.012;-7.064;2024-02-15T22:48:47;6.03;;;1.65;;
60239;SDS011;46102;39.012;-7.064;2024-02-15T22:50:48;7.05;;;2.05;;
60239;SDS011;46102;39.012;-7.064;2024-02-15T22:52:49;4.95;;;1.52;;
60239;SDS011;46102;39.012;-7.064;2024-02-15T22:54:50;5.93;;;1.50;;
60239;SDS011;46102;39.012;-7.064;2024-02-15T22:56:52;7.55;;;1.60;;
60239;SDS011;46102;39.012;-7.064;2024-02-15T22:58:52;8.20;;;1.10;;
60239;SDS011;46102;39.012;-7.064;2024-02-15T23:00:53;10.60;;;1.00;;
60239;SDS011;46102;39.012;-7.064;2024-02-15T23:02:54;6.90;;;1.85;;
60239;SDS011;46102;39.012;-7.064;2024-02-15T23:04:55;2.03;;;1.23;;
60239;SDS011;46102;39.012;-7.064;2024-02-15T23:06:59;3.92;;;1.33;;
60239;SDS011;46102;39.012;-7.064;2024-02-15T23:09:00;6.03;;;1.20;;
60239;SDS011;46102;39.012;-7.064;2024-02-15T23:11:01;12.13;;;1.90;;
60239;SDS011;46102;39.012;-7.064;2024-02-15T23:13:02;10.32;;;1.70;;
60239;SDS011;46102;39.012;-7.064;2024-02-15T23:15:04;6.35;;;1.20;;
60239;SDS011;46102;39.012;-7.064;2024-02-15T23:17:06;5.95;;;1.20;;
60239;SDS011;46102;39.012;-7.064;2024-02-15T23:19:07;2.30;;;1.20;;
60239;SDS011;46102;39.012;-7.064;2024-02-15T23:21:12;3.65;;;1.23;;
60239;SDS011;46102;39.012;-7.064;2024-02-15T23:23:13;6.65;;;1.05;;
60239;SDS011;46102;39.012;-7.064;2024-02-15T23:25:14;7.55;;;1.52;;
60239;SDS011;46102;39.012;-7.064;2024-02-15T23:27:15;9.15;;;1.30;;
60239;SDS011;46102;39.012;-7.064;2024-02-15T23:29:16;4.55;;;0.90;;
60239;SDS011;46102;39.012;-7.064;2024-02-15T23:31:19;3.63;;;1.05;;
60239;SDS011;46102;39.012;-7.064;2024-02-15T23:33:20;6.03;;;1.58;;
60239;SDS011;46102;39.012;-7.064;2024-02-15T23:35:21;6.90;;;1.60;;
60239;SDS011;46102;39.012;-7.064;2024-02-15T23:37:30;6.15;;;2.50;;
60239;SDS011;46102;39.012;-7.064;2024-02-15T23:39:50;7.30;;;1.40;;
60239;SDS011;46102;39.012;-7.064;2024-02-15T23:42:09;7.47;;;1.80;;
60239;SDS011;46102;39.012;-7.064;2024-02-15T23:44:10;5.65;;;1.45;;
60239;SDS011;46102;39.012;-7.064;2024-02-15T23:46:15;6.45;;;1.45;;
60239;SDS011;46102;39.012;-7.064;2024-02-15T23:48:16;5.07;;;1.20;;
60239;SDS011;46102;39.012;-7.064;2024-02-15T23:50:17;4.28;;;1.40;;
60239;SDS011;46102;39.012;-7.064;2024-02-15T23:52:19;11.13;;;1.90;;
60239;SDS011;46102;39.012;-7.064;2024-02-15T23:54:19;9.70;;;2.10;;
60239;SDS011;46102;39.012;-7.064;2024-02-15T23:56:20;7.25;;;1.65;;
60239;SDS011;46102;39.012;-7.064;2024-02-15T23:58:21;8.50;;;1.48;;
